Time;durP1;ratioP1;P1;durP2;ratioP2;P2;SDS_P1;SDS_P2;PMS_P1;PMS_P2;Temp;Humidity;BMP_temperature;BMP_pressure;BME280_temperature;BME280_humidity;BME280_pressure;Samples;Min_cycle;Max_cycle;Signal;HPM_P1;HPM_P2
2022/11/24 00:02:08;;;;;;;17.10;7.35;;;8.10;99.90;;;;;;4900902;29;20128;-85
2022/11/24 00:04:34;;;;;;;15.10;7.65;;;8.10;99.90;;;;;;4898891;29;20053;-84
2022/11/24 00:06:59;;;;;;;16.17;7.53;;;8.00;99.90;;;;;;4901527;29;20143;-84
2022/11/24 00:09:25;;;;;;;18.23;6.80;;;8.00;99.90;;;;;;4909702;29;20076;-84
2022/11/24 00:11:50;;;;;;;17.67;7.38;;;8.00;99.90;;;;;;4902315;29;20041;-85
2022/11/24 00:14:16;;;;;;;15.93;6.78;;;7.90;99.90;;;;;;4902221;29;20536;-84
2022/11/24 00:16:42;;;;;;;20.50;7.45;;;7.90;99.90;;;;;;4908840;29;20044;-84
2022/11/24 00:19:08;;;;;;;17.25;7.18;;;7.90;99.90;;;;;;4918355;29;20476;-85
2022/11/24 00:21:35;;;;;;;18.58;6.50;;;7.80;99.90;;;;;;4909031;29;20427;-84
2022/11/24 00:24:01;;;;;;;18.85;7.13;;;7.90;99.90;;;;;;4898710;29;20055;-84
2022/11/24 00:26:32;;;;;;;14.13;6.07;;;7.80;99.90;;;;;;4903872;29;20040;-85
2022/11/24 00:29:00;;;;;;;19.10;7.07;;;7.80;99.90;;;;;;4917155;29;20087;-84
2022/11/24 00:31:32;;;;;;;14.70;6.90;;;7.70;99.90;;;;;;4917680;29;20436;-84
2022/11/24 00:34:00;;;;;;;13.98;6.32;;;7.70;99.90;;;;;;4905108;29;20060;-84
2022/11/24 00:36:28;;;;;;;16.45;6.53;;;7.70;99.90;;;;;;4903809;29;20056;-84
2022/11/24 00:38:55;;;;;;;20.92;6.45;;;7.70;99.90;;;;;;4898434;29;20145;-84
2022/11/24 00:41:21;;;;;;;15.40;6.20;;;7.70;99.90;;;;;;4900159;29;20048;-84
2022/11/24 00:43:47;;;;;;;23.60;6.22;;;7.70;99.90;;;;;;4911123;29;20055;-84
2022/11/24 00:46:12;;;;;;;18.35;6.07;;;7.70;99.90;;;;;;4897789;29;20037;-84
2022/11/24 00:48:38;;;;;;;16.05;6.03;;;7.70;99.90;;;;;;4915173;29;20087;-84
2022/11/24 00:51:07;;;;;;;22.52;5.75;;;7.60;99.90;;;;;;4898580;29;20044;-84
2022/11/24 00:53:33;;;;;;;24.58;5.80;;;7.70;99.90;;;;;;4902213;29;20048;-84
2022/11/24 00:55:59;;;;;;;20.83;6.07;;;7.60;99.90;;;;;;4903327;29;20043;-84
2022/11/24 00:58:25;;;;;;;18.45;6.00;;;7.60;99.90;;;;;;4901917;29;20091;-84
2022/11/24 01:00:51;;;;;;;18.67;6.18;;;7.60;99.90;;;;;;4899353;29;20041;-84
2022/11/24 01:03:19;;;;;;;22.02;5.75;;;7.60;99.90;;;;;;4897879;29;20044;-84
2022/11/24 01:05:45;;;;;;;20.08;5.55;;;7.60;99.90;;;;;;4901013;29;20039;-84
2022/11/24 01:08:11;;;;;;;21.88;5.35;;;7.60;99.90;;;;;;4909379;29;20510;-84
2022/11/24 01:10:37;;;;;;;16.73;5.18;;;7.60;99.90;;;;;;4904786;29;20123;-84
2022/11/24 01:13:03;;;;;;;18.35;5.72;;;7.60;99.90;;;;;;4912047;29;20040;-84
2022/11/24 01:15:29;;;;;;;20.85;5.47;;;7.50;99.90;;;;;;4898528;29;20064;-84
2022/11/24 01:17:55;;;;;;;20.20;5.47;;;7.50;99.90;;;;;;4902783;29;20040;-84
2022/11/24 01:20:21;;;;;;;21.33;5.30;;;7.50;99.90;;;;;;4916754;29;20048;-84
2022/11/24 01:22:48;;;;;;;29.30;5.57;;;7.50;99.90;;;;;;4913765;29;20052;-84
2022/11/24 01:25:14;;;;;;;19.08;5.28;;;7.50;99.90;;;;;;4915506;29;20467;-84
2022/11/24 01:27:39;;;;;;;18.98;4.82;;;7.50;99.90;;;;;;4916257;29;20123;-84
2022/11/24 01:30:06;;;;;;;26.52;5.30;;;7.50;99.90;;;;;;4915846;29;20385;-84
2022/11/24 01:32:34;;;;;;;26.50;5.07;;;7.50;99.90;;;;;;4897751;29;20065;-84
2022/11/24 01:35:01;;;;;;;27.42;5.22;;;7.50;99.90;;;;;;4903570;29;20055;-84
2022/11/24 01:37:26;;;;;;;17.92;4.68;;;7.50;99.90;;;;;;4897384;29;20055;-84
2022/11/24 01:39:52;;;;;;;15.98;5.13;;;7.50;99.90;;;;;;4913602;29;20044;-84
2022/11/24 01:42:18;;;;;;;26.08;5.72;;;7.50;99.90;;;;;;4916144;29;20036;-84
2022/11/24 01:44:43;;;;;;;20.80;4.72;;;7.50;99.90;;;;;;4914611;29;20052;-84
2022/11/24 01:47:35;;;;;;;23.20;4.72;;;7.50;99.90;;;;;;4915388;29;20036;-84
2022/11/24 01:50:03;;;;;;;19.50;4.70;;;7.50;99.90;;;;;;4900678;29;20425;-84
2022/11/24 01:52:37;;;;;;;21.50;4.63;;;7.50;99.90;;;;;;4907333;29;20048;-84
2022/11/24 01:55:08;;;;;;;26.30;4.75;;;7.50;99.90;;;;;;4912056;29;20091;-84
2022/11/24 01:57:41;;;;;;;22.67;5.07;;;7.50;99.90;;;;;;4912159;29;20396;-83
2022/11/24 02:00:10;;;;;;;24.42;4.90;;;7.50;99.90;;;;;;4889789;29;20049;-83
2022/11/24 02:02:36;;;;;;;18.50;3.97;;;7.50;99.90;;;;;;4895918;29;20084;-84
2022/11/24 02:05:09;;;;;;;19.80;4.35;;;7.50;99.90;;;;;;4901592;29;20086;-84
2022/11/24 02:07:36;;;;;;;20.90;4.22;;;7.50;99.90;;;;;;4903268;29;20119;-84
2022/11/24 02:10:07;;;;;;;19.23;4.55;;;7.50;99.90;;;;;;4906474;29;20052;-84
2022/11/24 02:12:34;;;;;;;20.38;4.18;;;7.50;99.90;;;;;;4906562;29;20449;-84
2022/11/24 02:15:00;;;;;;;21.02;4.57;;;7.50;99.90;;;;;;4906436;29;20080;-84
2022/11/24 02:17:26;;;;;;;17.30;3.92;;;7.50;99.90;;;;;;4916680;29;20071;-83
2022/11/24 02:19:55;;;;;;;21.20;3.95;;;7.50;99.90;;;;;;4908972;29;20492;-84
2022/11/24 02:22:41;;;;;;;16.55;3.70;;;7.50;99.90;;;;;;4896960;29;20444;-84
2022/11/24 02:25:13;;;;;;;16.83;3.97;;;7.50;99.90;;;;;;4899016;29;20107;-84
2022/11/24 02:27:39;;;;;;;18.25;4.13;;;7.40;99.90;;;;;;4896798;29;20477;-84
2022/11/24 02:30:05;;;;;;;15.65;3.78;;;7.40;99.90;;;;;;4902930;29;20048;-83
2022/11/24 02:32:32;;;;;;;20.13;4.15;;;7.40;99.90;;;;;;4897941;29;20052;-83
2022/11/24 02:35:02;;;;;;;18.30;3.70;;;7.40;99.90;;;;;;4901744;29;20579;-84
2022/11/24 02:37:27;;;;;;;17.67;3.83;;;7.30;99.90;;;;;;4914200;29;20480;-84
2022/11/24 02:39:53;;;;;;;19.75;3.85;;;7.40;99.90;;;;;;4911624;29;20047;-84
2022/11/24 02:42:19;;;;;;;23.95;4.70;;;7.30;99.90;;;;;;4900071;29;20052;-84
2022/11/24 02:44:49;;;;;;;18.27;3.55;;;7.30;99.90;;;;;;4911484;29;20037;-84
2022/11/24 02:47:15;;;;;;;19.48;4.05;;;7.30;99.90;;;;;;4900381;29;20052;-84
2022/11/24 02:49:41;;;;;;;15.63;3.83;;;7.30;99.90;;;;;;4899181;29;20441;-84
2022/11/24 02:52:07;;;;;;;13.88;3.22;;;7.30;99.90;;;;;;4901114;29;20048;-84
2022/11/24 02:54:33;;;;;;;16.92;3.90;;;7.30;99.90;;;;;;4902692;29;20485;-84
2022/11/24 02:56:59;;;;;;;12.27;3.05;;;7.30;99.90;;;;;;4899778;29;20159;-84
2022/11/24 02:59:24;;;;;;;21.10;4.22;;;7.30;99.90;;;;;;4923342;29;20131;-84
2022/11/24 03:01:50;;;;;;;20.38;4.00;;;7.30;99.90;;;;;;4914761;29;20063;-84
2022/11/24 03:04:16;;;;;;;20.92;4.05;;;7.30;99.90;;;;;;4903254;29;20397;-84
2022/11/24 03:06:42;;;;;;;28.40;4.25;;;7.30;99.90;;;;;;4918648;29;20051;-84
2022/11/24 03:09:09;;;;;;;23.98;4.03;;;7.30;99.90;;;;;;4913669;29;20040;-84
2022/11/24 03:11:34;;;;;;;19.30;3.78;;;7.30;99.90;;;;;;4907127;29;20036;-84
2022/11/24 03:14:00;;;;;;;22.98;4.15;;;7.40;99.90;;;;;;4918613;29;20070;-83
2022/11/24 03:16:25;;;;;;;26.25;4.32;;;7.30;99.90;;;;;;4908846;29;20032;-83
2022/11/24 03:18:51;;;;;;;25.20;4.57;;;7.40;99.90;;;;;;4906493;29;20052;-83
2022/11/24 03:21:17;;;;;;;22.70;3.83;;;7.40;99.90;;;;;;4914935;29;20092;-84
2022/11/24 03:23:43;;;;;;;22.25;3.90;;;7.40;99.90;;;;;;4900641;29;20131;-84
2022/11/24 03:26:14;;;;;;;22.63;3.83;;;7.40;99.90;;;;;;4900121;29;20040;-84
2022/11/24 03:28:39;;;;;;;25.95;4.57;;;7.50;99.90;;;;;;4919332;29;20086;-84
2022/11/24 03:31:06;;;;;;;20.05;3.63;;;7.50;99.90;;;;;;4916299;29;20478;-84
2022/11/24 03:33:32;;;;;;;20.42;3.80;;;7.50;99.90;;;;;;4899946;29;20128;-84
2022/11/24 03:35:57;;;;;;;24.15;3.80;;;7.50;99.90;;;;;;4899191;29;20481;-84
2022/11/24 03:38:23;;;;;;;19.77;3.50;;;7.50;99.90;;;;;;4901348;29;20408;-84
2022/11/24 03:40:49;;;;;;;17.17;3.45;;;7.50;99.90;;;;;;4899102;29;20628;-85
2022/11/24 03:43:15;;;;;;;22.10;3.63;;;7.50;99.90;;;;;;4907766;29;20040;-84
2022/11/24 03:45:44;;;;;;;18.42;4.43;;;7.50;99.90;;;;;;4909985;29;20092;-84
2022/11/24 03:48:10;;;;;;;18.23;3.95;;;7.50;99.90;;;;;;4900303;29;20048;-85
2022/11/24 03:50:36;;;;;;;17.25;2.95;;;7.50;99.90;;;;;;4900165;29;20056;-84
2022/11/24 03:53:01;;;;;;;16.75;3.60;;;7.50;99.90;;;;;;4908076;29;20116;-84
2022/11/24 03:55:27;;;;;;;17.02;3.45;;;7.50;99.90;;;;;;4918346;29;20040;-84
2022/11/24 03:57:53;;;;;;;14.73;3.63;;;7.50;99.90;;;;;;4911167;29;20059;-84
2022/11/24 04:00:18;;;;;;;18.40;3.33;;;7.50;99.90;;;;;;4908876;29;20055;-84
2022/11/24 04:02:44;;;;;;;17.05;3.80;;;7.50;99.90;;;;;;4911476;29;20502;-84
2022/11/24 04:05:10;;;;;;;19.92;3.53;;;7.50;99.90;;;;;;4900040;29;20052;-84
2022/11/24 04:07:35;;;;;;;26.55;3.90;;;7.40;99.90;;;;;;4903827;29;20040;-84
2022/11/24 04:10:02;;;;;;;20.17;3.63;;;7.50;99.90;;;;;;4914750;29;20529;-84
2022/11/24 04:12:45;;;;;;;21.20;3.72;;;7.40;99.90;;;;;;4898354;29;20493;-84
2022/11/24 04:15:12;;;;;;;;;;;7.40;99.90;;;;;;4885409;29;20056;-84
2022/11/24 04:17:37;;;;;;;18.13;3.35;;;7.40;99.90;;;;;;4915642;29;19923;-84
2022/11/24 04:20:04;;;;;;;19.48;3.65;;;7.40;99.90;;;;;;4907270;29;20048;-84
2022/11/24 04:22:29;;;;;;;19.27;3.40;;;7.40;99.90;;;;;;4909541;29;20488;-84
2022/11/24 04:24:55;;;;;;;22.20;3.10;;;7.40;99.90;;;;;;4907558;29;20084;-84
2022/11/24 04:27:21;;;;;;;14.65;3.15;;;7.40;99.90;;;;;;4898431;29;20519;-84
2022/11/24 04:29:46;;;;;;;16.23;3.35;;;7.40;99.90;;;;;;4911704;29;20055;-84
2022/11/24 04:32:12;;;;;;;17.77;3.50;;;7.40;99.90;;;;;;4918545;29;20044;-84
2022/11/24 04:34:37;;;;;;;19.05;2.95;;;7.40;99.90;;;;;;4905241;29;20045;-84
2022/11/24 04:37:03;;;;;;;17.25;3.45;;;7.40;99.90;;;;;;4912153;29;20425;-84
2022/11/24 04:39:29;;;;;;;18.50;3.40;;;7.30;99.90;;;;;;4912126;29;20389;-84
2022/11/24 04:41:54;;;;;;;17.70;3.28;;;7.30;99.90;;;;;;4898169;29;20048;-84
2022/11/24 04:44:20;;;;;;;19.02;3.20;;;7.40;99.90;;;;;;4905347;29;20130;-84
2022/11/24 04:46:46;;;;;;;16.38;2.90;;;7.30;99.90;;;;;;4914435;29;20120;-84
2022/11/24 04:49:11;;;;;;;19.08;3.22;;;7.30;99.90;;;;;;4917661;28;20051;-84
2022/11/24 04:51:38;;;;;;;18.35;3.55;;;7.30;99.90;;;;;;4917960;29;20052;-84
2022/11/24 04:54:05;;;;;;;15.68;3.00;;;7.30;99.90;;;;;;4913292;29;20052;-84
2022/11/24 04:56:30;;;;;;;18.85;3.17;;;7.30;99.90;;;;;;4917027;29;20453;-85
2022/11/24 04:58:56;;;;;;;21.60;3.17;;;7.30;99.90;;;;;;4913061;29;20139;-84
2022/11/24 05:01:22;;;;;;;16.95;2.90;;;7.30;99.90;;;;;;4907105;29;20032;-84
2022/11/24 05:03:55;;;;;;;15.40;2.88;;;7.20;99.90;;;;;;4898053;29;20100;-84
2022/11/24 05:06:21;;;;;;;18.40;3.08;;;7.20;99.90;;;;;;4912966;29;20696;-84
2022/11/24 05:08:47;;;;;;;11.48;2.60;;;7.20;99.90;;;;;;4900127;29;20397;-84
2022/11/24 05:11:14;;;;;;;13.45;2.80;;;7.20;99.90;;;;;;4913386;29;20080;-84
2022/11/24 05:13:39;;;;;;;15.05;2.70;;;7.20;99.90;;;;;;4914910;29;20047;-84
2022/11/24 05:16:05;;;;;;;11.57;2.88;;;7.10;99.90;;;;;;4898731;29;20120;-84
2022/11/24 05:18:31;;;;;;;12.02;3.08;;;7.10;99.90;;;;;;4896710;29;20481;-84
2022/11/24 05:20:57;;;;;;;10.90;2.58;;;7.10;99.90;;;;;;4900762;29;20092;-84
2022/11/24 05:23:24;;;;;;;11.05;2.58;;;7.00;99.90;;;;;;4896885;29;20559;-84
2022/11/24 05:25:50;;;;;;;8.55;2.05;;;7.00;99.90;;;;;;4899173;29;20176;-85
2022/11/24 05:28:16;;;;;;;11.65;2.67;;;7.00;99.90;;;;;;4897442;29;20072;-84
2022/11/24 05:30:42;;;;;;;12.70;2.40;;;7.00;99.90;;;;;;4897951;29;20396;-84
2022/11/24 05:33:14;;;;;;;12.15;2.60;;;7.00;99.90;;;;;;4897441;29;20051;-84
2022/11/24 05:35:40;;;;;;;19.42;3.05;;;7.00;99.90;;;;;;4900557;29;20060;-84
2022/11/24 05:38:06;;;;;;;9.70;2.70;;;6.90;99.90;;;;;;4906572;29;20432;-84
2022/11/24 05:40:31;;;;;;;7.75;2.33;;;7.00;99.90;;;;;;4896675;29;20052;-84
2022/11/24 05:42:57;;;;;;;17.15;3.17;;;7.00;99.90;;;;;;4897482;29;20076;-83
2022/11/24 05:45:23;;;;;;;14.05;2.80;;;6.90;99.90;;;;;;4909060;29;20489;-84
2022/11/24 05:47:49;;;;;;;15.55;2.85;;;6.90;99.90;;;;;;4894803;29;20060;-83
2022/11/24 05:50:17;;;;;;;14.57;2.80;;;6.90;99.90;;;;;;4894464;29;20048;-84
2022/11/24 05:52:44;;;;;;;13.57;2.55;;;6.90;99.90;;;;;;4897366;29;20048;-83
2022/11/24 05:55:10;;;;;;;15.30;2.97;;;6.90;99.90;;;;;;4915752;29;20049;-84
2022/11/24 05:57:36;;;;;;;17.58;2.90;;;6.90;99.90;;;;;;4903071;29;20049;-83
2022/11/24 06:00:05;;;;;;;17.15;3.22;;;6.90;99.90;;;;;;4897213;29;20104;-83
2022/11/24 06:02:31;;;;;;;15.27;2.63;;;6.90;99.90;;;;;;4902615;29;20051;-85
2022/11/24 06:04:56;;;;;;;13.38;2.83;;;6.90;99.90;;;;;;4907299;29;20056;-84
2022/11/24 06:07:22;;;;;;;12.75;2.67;;;6.80;99.90;;;;;;4894451;29;20052;-84
2022/11/24 06:09:48;;;;;;;19.95;3.15;;;6.90;99.90;;;;;;4898394;29;20044;-87
2022/11/24 06:12:13;;;;;;;18.98;2.78;;;6.90;99.90;;;;;;4896226;29;20044;-85
2022/11/24 06:14:39;;;;;;;19.92;3.35;;;6.90;99.90;;;;;;4896075;29;20048;-85
2022/11/24 06:17:05;;;;;;;15.02;2.72;;;6.90;99.90;;;;;;4911905;29;20040;-91
2022/11/24 06:21:01;;;;;;;10.90;2.70;;;6.80;99.90;;;;;;4913306;23;20074;-93
2022/11/24 06:23:49;;;;;;;18.70;3.00;;;6.90;99.90;;;;;;4938634;23;20056;-92
2022/11/24 06:26:17;;;;;;;21.50;3.38;;;6.80;99.90;;;;;;5155715;23;20474;-85
2022/11/24 06:28:42;;;;;;;12.10;2.47;;;6.90;99.90;;;;;;4877692;29;20442;-86
2022/11/24 06:31:17;;;;;;;13.00;2.83;;;6.80;99.90;;;;;;4877186;29;20114;-85
2022/11/24 06:33:45;;;;;;;18.25;3.08;;;6.90;99.90;;;;;;4883077;29;20092;-85
2022/11/24 06:36:13;;;;;;;21.85;3.15;;;6.90;99.90;;;;;;4893047;29;20049;-85
2022/11/24 06:38:39;;;;;;;18.02;2.83;;;6.90;99.90;;;;;;4878108;29;20053;-85
2022/11/24 06:41:07;;;;;;;14.07;2.75;;;6.90;99.90;;;;;;4885312;29;20055;-85
2022/11/24 06:43:43;;;;;;;19.05;3.10;;;6.80;99.90;;;;;;4884837;29;20545;-86
2022/11/24 06:46:17;;;;;;;17.08;3.33;;;6.90;99.90;;;;;;4877415;29;20144;-87
2022/11/24 06:48:50;;;;;;;18.05;2.88;;;6.80;99.90;;;;;;4879937;29;20552;-86
2022/11/24 06:51:17;;;;;;;19.38;3.33;;;6.80;99.90;;;;;;4877790;29;20073;-86
2022/11/24 06:53:43;;;;;;;14.52;2.88;;;6.90;99.90;;;;;;4874506;29;20137;-86
2022/11/24 06:56:36;;;;;;;11.57;2.35;;;6.90;99.90;;;;;;4876896;29;20168;-86
2022/11/24 06:59:01;;;;;;;15.00;3.00;;;6.90;99.90;;;;;;4878767;29;20052;-87
2022/11/24 07:01:33;;;;;;;17.58;2.80;;;6.90;99.90;;;;;;4875765;29;20045;-88
2022/11/24 07:04:04;;;;;;;17.27;2.85;;;6.80;99.90;;;;;;4884392;29;20048;-86
2022/11/24 07:06:30;;;;;;;9.45;1.90;;;6.90;99.90;;;;;;4876689;29;20049;-87
2022/11/24 07:08:56;;;;;;;14.80;2.83;;;6.90;99.90;;;;;;4877987;29;20498;-87
2022/11/24 07:11:23;;;;;;;13.90;2.95;;;6.90;99.90;;;;;;4881345;29;20073;-86
2022/11/24 07:13:59;;;;;;;20.75;3.50;;;6.80;99.90;;;;;;4878894;29;20049;-86
2022/11/24 07:16:30;;;;;;;18.00;3.20;;;6.80;99.90;;;;;;4877731;29;20136;-86
2022/11/24 07:19:11;;;;;;;15.63;2.75;;;6.80;99.90;;;;;;4877989;29;20052;-87
2022/11/24 07:21:40;;;;;;;21.77;4.80;;;6.80;99.90;;;;;;4861428;29;20674;-88
2022/11/24 07:24:17;;;;;;;17.30;3.30;;;6.80;99.90;;;;;;4876656;29;20072;-88
2022/11/24 07:26:52;;;;;;;11.80;2.85;;;6.80;99.90;;;;;;4876113;29;20498;-87
2022/11/24 07:29:20;;;;;;;15.95;4.47;;;6.80;99.90;;;;;;4872390;29;20053;-88
2022/11/24 07:31:52;;;;;;;21.63;3.58;;;6.80;99.90;;;;;;4880114;29;20053;-86
2022/11/24 07:34:20;;;;;;;15.38;2.83;;;6.80;99.90;;;;;;4880779;29;20405;-87
2022/11/24 07:36:49;;;;;;;17.95;3.28;;;6.70;99.90;;;;;;4880511;29;20037;-86
2022/11/24 07:39:14;;;;;;;20.23;3.65;;;6.80;99.90;;;;;;4881881;29;20095;-86
2022/11/24 07:41:40;;;;;;;17.98;3.83;;;6.80;99.90;;;;;;4880453;29;20084;-86
2022/11/24 07:44:06;;;;;;;17.38;3.25;;;6.80;99.90;;;;;;4882734;29;20052;-86
2022/11/24 07:46:34;;;;;;;17.30;3.55;;;6.80;99.90;;;;;;4883694;29;20052;-86
2022/11/24 07:49:00;;;;;;;16.38;3.00;;;6.80;99.90;;;;;;4888899;29;20400;-85
2022/11/24 07:51:29;;;;;;;13.20;2.80;;;6.70;99.90;;;;;;4886947;29;20084;-85
2022/11/24 07:53:58;;;;;;;15.82;3.33;;;6.70;99.90;;;;;;4878822;29;20089;-85
2022/11/24 07:56:29;;;;;;;12.48;2.80;;;6.80;99.90;;;;;;4880689;29;20096;-86
2022/11/24 07:58:58;;;;;;;16.83;3.33;;;6.80;99.90;;;;;;4879636;29;20516;-85
2022/11/24 08:01:27;;;;;;;17.63;3.60;;;6.80;99.90;;;;;;4879144;29;20089;-86
2022/11/24 08:04:01;;;;;;;22.33;3.80;;;6.80;99.90;;;;;;4885774;29;20061;-85
2022/11/24 08:06:33;;;;;;;18.05;3.30;;;6.80;99.90;;;;;;4880293;29;20156;-85
2022/11/24 08:08:59;;;;;;;15.30;3.42;;;6.80;99.90;;;;;;4882773;29;20049;-85
2022/11/24 08:11:30;;;;;;;17.65;4.53;;;6.80;99.90;;;;;;4881258;29;20048;-84
2022/11/24 08:13:58;;;;;;;19.20;3.88;;;6.80;99.90;;;;;;4861525;29;20097;-85
2022/11/24 08:16:30;;;;;;;19.50;4.38;;;6.80;99.90;;;;;;4878883;29;20525;-85
2022/11/24 08:19:14;;;;;;;22.25;4.75;;;6.90;99.90;;;;;;4881518;29;20468;-86
2022/11/24 08:21:46;;;;;;;18.38;4.63;;;6.90;99.90;;;;;;4880018;29;20518;-85
2022/11/24 08:24:15;;;;;;;19.17;4.25;;;6.90;99.90;;;;;;4880114;29;20509;-85
2022/11/24 08:26:42;;;;;;;15.15;4.22;;;7.00;99.90;;;;;;4883376;29;20056;-85
2022/11/24 08:29:08;;;;;;;15.82;3.42;;;7.00;99.90;;;;;;4891798;29;20153;-85
2022/11/24 08:31:37;;;;;;;18.88;4.88;;;7.00;99.90;;;;;;4880068;29;20048;-85
2022/11/24 08:34:12;;;;;;;16.15;4.30;;;7.10;99.90;;;;;;4880385;29;20048;-87
2022/11/24 08:36:47;;;;;;;19.52;4.35;;;7.10;99.90;;;;;;4892899;29;20063;-87
2022/11/24 08:39:19;;;;;;;13.30;4.10;;;7.10;99.90;;;;;;4894874;29;20040;-86
2022/11/24 08:41:48;;;;;;;14.45;4.68;;;7.20;99.90;;;;;;4892610;29;20059;-87
2022/11/24 08:44:19;;;;;;;17.58;4.55;;;7.20;99.90;;;;;;4897331;29;20437;-87
2022/11/24 08:46:53;;;;;;;20.50;5.00;;;7.20;99.90;;;;;;4897477;29;20048;-88
2022/11/24 08:49:24;;;;;;;15.90;4.22;;;7.20;99.90;;;;;;4894718;29;20048;-86
2022/11/24 08:52:10;;;;;;;15.75;4.07;;;7.20;99.90;;;;;;4859215;29;20149;-86
2022/11/24 08:54:39;;;;;;;19.30;4.22;;;7.30;99.90;;;;;;4860913;29;20049;-87
2022/11/24 08:57:13;;;;;;;14.57;4.03;;;7.30;99.90;;;;;;4860230;29;20049;-86
2022/11/24 08:59:45;;;;;;;17.23;4.55;;;7.40;99.90;;;;;;4866823;29;20043;-87
2022/11/24 09:02:13;;;;;;;14.18;3.65;;;7.40;99.90;;;;;;4890380;29;20049;-87
2022/11/24 09:04:51;;;;;;;13.50;3.83;;;7.30;99.90;;;;;;4878540;29;20485;-86
2022/11/24 09:07:22;;;;;;;13.80;3.85;;;7.40;99.90;;;;;;4879884;29;20092;-87
2022/11/24 09:09:51;;;;;;;12.10;3.50;;;7.40;99.90;;;;;;4878682;29;20045;-86
2022/11/24 09:12:22;;;;;;;10.10;2.95;;;7.50;99.90;;;;;;4879804;29;20053;-86
2022/11/24 09:14:54;;;;;;;14.60;3.60;;;7.50;99.90;;;;;;4879904;29;20040;-88
2022/11/24 09:17:22;;;;;;;18.10;4.20;;;7.50;99.90;;;;;;4877930;29;20409;-87
2022/11/24 09:19:48;;;;;;;9.70;3.08;;;7.60;99.90;;;;;;4880835;29;20045;-85
2022/11/24 09:22:19;;;;;;;11.43;3.17;;;7.60;99.90;;;;;;4879758;29;20474;-87
2022/11/24 09:24:45;;;;;;;9.35;2.95;;;7.70;99.90;;;;;;4878200;29;20053;-87
2022/11/24 09:27:11;;;;;;;13.45;4.57;;;7.70;99.90;;;;;;4878154;29;20405;-87
2022/11/24 09:29:36;;;;;;;10.77;3.50;;;7.70;99.90;;;;;;4878065;29;20053;-87
2022/11/24 09:32:02;;;;;;;12.30;4.35;;;7.70;99.90;;;;;;4877130;29;20498;-87
2022/11/24 09:34:28;;;;;;;18.50;6.57;;;7.70;99.90;;;;;;4879731;29;20101;-87
2022/11/24 09:36:54;;;;;;;20.90;8.02;;;7.80;99.90;;;;;;4880000;29;20049;-86
2022/11/24 09:39:22;;;;;;;12.90;4.78;;;7.80;99.90;;;;;;4878078;29;20084;-87
2022/11/24 09:41:59;;;;;;;12.13;4.57;;;7.90;99.90;;;;;;4880926;29;20033;-86
2022/11/24 09:44:40;;;;;;;15.75;6.38;;;7.90;99.90;;;;;;4887489;29;20059;-86
2022/11/24 09:47:25;;;;;;;12.05;5.60;;;7.90;99.90;;;;;;4880437;29;20521;-86
2022/11/24 09:50:03;;;;;;;18.80;8.73;;;8.00;99.90;;;;;;4877900;29;20068;-86
2022/11/24 09:52:37;;;;;;;11.98;6.13;;;8.00;99.90;;;;;;4878424;29;20045;-84
2022/11/24 09:55:10;;;;;;;14.68;4.97;;;8.00;99.90;;;;;;4893054;29;20573;-84
2022/11/24 09:57:40;;;;;;;11.45;4.05;;;8.00;99.90;;;;;;4880348;29;20408;-85
2022/11/24 10:00:12;;;;;;;14.82;5.90;;;8.10;99.90;;;;;;4877659;29;20494;-85
2022/11/24 10:02:38;;;;;;;12.82;5.65;;;8.20;99.90;;;;;;4881881;29;20052;-86
2022/11/24 10:05:05;;;;;;;18.48;8.00;;;8.20;99.90;;;;;;4877375;29;20056;-85
2022/11/24 10:07:44;;;;;;;11.52;4.55;;;8.20;99.90;;;;;;4876942;29;20041;-85
2022/11/24 10:10:22;;;;;;;21.27;9.43;;;8.20;99.90;;;;;;4879091;29;20415;-85
2022/11/24 10:13:22;;;;;;;20.08;7.78;;;8.30;99.90;;;;;;4878375;29;20040;-85
2022/11/24 10:16:12;;;;;;;16.58;7.72;;;8.40;99.90;;;;;;4878719;29;20092;-85
2022/11/24 10:19:22;;;;;;;19.05;7.75;;;8.40;99.90;;;;;;4860225;29;20486;-84
2022/11/24 10:21:58;;;;;;;17.40;7.53;;;8.40;99.90;;;;;;4860921;29;20041;-86
2022/11/24 10:24:23;;;;;;;20.70;9.02;;;8.50;99.90;;;;;;4880560;29;20089;-85
2022/11/24 10:27:12;;;;;;;22.00;10.80;;;8.40;99.90;;;;;;4878017;29;20188;-86
2022/11/24 10:29:40;;;;;;;19.52;8.70;;;8.50;99.90;;;;;;4878549;29;20109;-86
2022/11/24 10:32:35;;;;;;;14.65;7.10;;;8.50;99.90;;;;;;4878670;29;20045;-86
2022/11/24 10:35:16;;;;;;;14.27;7.07;;;8.50;99.90;;;;;;4873274;29;20529;-86
2022/11/24 10:38:09;;;;;;;11.73;4.25;;;8.50;99.90;;;;;;4864734;29;20044;-86
2022/11/24 10:40:44;;;;;;;17.55;9.05;;;8.50;99.90;;;;;;4878900;29;20045;-85
2022/11/24 10:43:11;;;;;;;13.73;5.72;;;8.50;99.90;;;;;;4875235;29;20045;-84
2022/11/24 10:45:38;;;;;;;14.32;6.38;;;8.60;99.90;;;;;;4877060;29;20132;-85
2022/11/24 10:48:27;;;;;;;23.58;11.32;;;8.60;99.90;;;;;;4877022;29;20045;-85
2022/11/24 10:51:04;;;;;;;20.42;9.63;;;8.60;99.90;;;;;;4877448;29;20053;-84
2022/11/24 10:53:33;;;;;;;16.92;7.50;;;8.70;99.90;;;;;;4881463;29;20052;-84
2022/11/24 10:56:03;;;;;;;25.08;11.73;;;8.70;99.90;;;;;;4878771;29;20065;-85
2022/11/24 10:58:36;;;;;;;22.52;10.25;;;8.70;99.90;;;;;;4880584;29;20458;-86
2022/11/24 11:01:28;;;;;;;18.23;8.77;;;8.80;99.90;;;;;;4879156;29;20078;-84
2022/11/24 11:03:56;;;;;;;14.10;5.35;;;8.80;99.90;;;;;;4883719;29;20462;-85
2022/11/24 11:06:28;;;;;;;16.23;5.70;;;8.80;99.90;;;;;;4886267;29;20477;-85
2022/11/24 11:09:06;;;;;;;13.45;5.20;;;8.90;99.90;;;;;;4873314;29;20052;-85
2022/11/24 11:11:33;;;;;;;16.60;4.78;;;9.00;99.90;;;;;;4881866;29;20519;-85
2022/11/24 11:14:04;;;;;;;15.05;7.05;;;9.10;99.90;;;;;;4880279;29;20064;-85
2022/11/24 11:17:00;;;;;;;15.63;5.03;;;9.10;99.90;;;;;;4881719;29;20052;-85
2022/11/24 11:19:46;;;;;;;14.73;6.10;;;9.10;99.90;;;;;;4880206;29;20095;-85
2022/11/24 11:22:20;;;;;;;13.70;4.72;;;9.20;99.90;;;;;;4876956;29;20049;-85
2022/11/24 11:24:47;;;;;;;20.88;8.95;;;9.20;99.90;;;;;;4881234;29;20052;-85
2022/11/24 11:27:21;;;;;;;25.17;11.32;;;9.40;99.90;;;;;;4882613;29;20049;-85
2022/11/24 11:29:47;;;;;;;16.08;6.70;;;9.40;99.90;;;;;;4879992;29;20499;-86
2022/11/24 11:32:17;;;;;;;20.70;7.30;;;9.40;99.90;;;;;;4881332;29;20044;-86
2022/11/24 11:42:21;;;;;;;18.92;5.32;;;9.50;99.90;;;;;;4964007;23;20412;-87
2022/11/24 11:45:46;;;;;;;8.88;3.95;;;9.60;99.90;;;;;;4901697;29;20040;-88
2022/11/24 11:48:45;;;;;;;14.15;4.50;;;9.60;99.90;;;;;;4917690;29;20052;-88
2022/11/24 11:52:06;;;;;;;13.38;4.05;;;9.70;99.90;;;;;;4902778;29;20057;-87
2022/11/24 11:55:03;;;;;;;15.65;3.75;;;9.80;99.90;;;;;;4914391;23;20267;-88
2022/11/24 11:58:03;;;;;;;14.93;3.97;;;9.80;99.90;;;;;;4900859;29;20449;-89
2022/11/24 12:01:27;;;;;;;12.30;3.65;;;9.90;99.90;;;;;;4896660;29;20292;-89
2022/11/24 12:04:52;;;;;;;12.82;3.72;;;9.90;99.90;;;;;;4865011;29;20061;-88
2022/11/24 12:07:55;;;;;;;16.98;3.78;;;10.00;99.90;;;;;;4819168;29;20055;-87
2022/11/24 12:14:49;;;;;;;12.07;3.40;;;10.10;99.90;;;;;;4829855;29;20133;-89
2022/11/24 12:18:21;;;;;;;14.93;3.20;;;10.10;99.90;;;;;;4805930;29;20054;-88
2022/11/24 12:21:45;;;;;;;12.60;3.00;;;10.10;99.90;;;;;;4802823;29;20050;-88
2022/11/24 12:34:40;;;;;;;;;;;;;;;;;;;;;
2022/11/24 12:46:29;;;;;;;16.13;3.30;;;10.50;99.90;;;;;;4680786;30;20592;-89
2022/11/24 13:15:29;;;;;;;;;;;;;;;;;;;;;
2022/11/24 13:26:44;;;;;;;19.58;3.67;;;10.80;99.90;;;;;;4640561;30;20051;-90
2022/11/24 13:33:32;;;;;;;19.27;3.40;;;10.80;99.90;;;;;;4638301;30;20068;-89
2022/11/24 13:36:27;;;;;;;17.20;3.17;;;10.90;99.90;;;;;;4630804;30;20335;-90
2022/11/24 13:42:56;;;;;;;14.98;2.90;;;10.90;99.90;;;;;;4750031;30;20048;-90
2022/11/24 13:45:55;;;;;;;15.65;3.25;;;10.90;99.90;;;;;;4767572;30;20540;-91
2022/11/24 13:48:27;;;;;;;19.50;2.78;;;10.90;99.90;;;;;;4768511;30;20116;-90
2022/11/24 13:50:52;;;;;;;22.60;3.92;;;11.00;99.90;;;;;;4768563;30;20646;-89
2022/11/24 13:53:56;;;;;;;16.17;3.20;;;10.90;99.90;;;;;;4830227;29;20048;-90
2022/11/24 13:56:24;;;;;;;18.10;3.63;;;10.90;99.90;;;;;;4859245;29;20057;-90
2022/11/24 13:58:57;;;;;;;16.88;2.53;;;10.90;99.90;;;;;;4858951;29;20594;-88
2022/11/24 14:01:50;;;;;;;16.70;3.35;;;10.90;99.90;;;;;;4859216;29;20555;-90
2022/11/24 14:04:27;;;;;;;18.70;3.45;;;10.90;99.90;;;;;;4884427;29;20041;-90
2022/11/24 14:06:55;;;;;;;14.88;2.67;;;10.90;99.90;;;;;;4896592;29;20094;-89
2022/11/24 14:16:01;;;;;;;22.42;3.42;;;10.80;99.90;;;;;;5504835;23;20092;-89
2022/11/24 14:19:24;;;;;;;16.08;2.95;;;10.90;99.90;;;;;;4916154;29;20078;-88
2022/11/24 14:21:50;;;;;;;16.27;2.90;;;10.90;99.90;;;;;;4948631;23;20088;-89
2022/11/24 14:24:44;;;;;;;18.45;3.00;;;10.80;99.90;;;;;;4910630;23;20095;-88
2022/11/24 14:30:30;;;;;;;16.52;3.20;;;10.80;99.90;;;;;;4879325;29;20057;-89
2022/11/24 14:33:00;;;;;;;16.90;3.00;;;10.80;99.90;;;;;;4839901;29;20519;-89
2022/11/24 14:35:51;;;;;;;15.02;3.00;;;10.80;99.90;;;;;;4840432;29;20130;-89
2022/11/24 14:38:17;;;;;;;17.63;3.05;;;10.80;99.90;;;;;;4885095;23;20136;-89